createdAt,value
2022-10-19T00:01:25.803Z,58.48
2022-10-19T00:04:33.557Z,57.80
2022-10-19T00:07:41.734Z,56.85
2022-10-19T00:10:45.887Z,56.91
2022-10-19T00:13:50.030Z,57.25
2022-10-19T00:16:55.830Z,56.33
2022-10-19T00:20:01.224Z,55.50
2022-10-19T00:23:05.196Z,55.83
2022-10-19T00:26:09.480Z,55.54
2022-10-19T00:29:14.893Z,56.85
2022-10-19T00:32:19.026Z,57.18
2022-10-19T00:35:28.493Z,56.74
2022-10-19T00:38:33.203Z,55.63
2022-10-19T00:41:38.172Z,56.13
2022-10-19T00:45:05.378Z,56.81
2022-10-19T00:48:11.341Z,56.03
2022-10-19T00:51:16.796Z,56.03
2022-10-19T00:54:21.084Z,56.71
2022-10-19T00:57:28.853Z,57.49
2022-10-19T01:00:34.721Z,57.10
2022-10-19T01:03:40.524Z,56.63
2022-10-19T01:06:47.477Z,57.73
2022-10-19T01:09:51.583Z,57.69
2022-10-19T01:13:15.996Z,57.13
2022-10-19T01:16:32.792Z,56.83
2022-10-19T01:20:10.939Z,57.18
2022-10-19T01:23:47.886Z,57.42
2022-10-19T01:27:15.490Z,57.08
2022-10-19T01:30:33.490Z,56.03
2022-10-19T01:33:47.105Z,56.05
2022-10-19T01:37:01.964Z,56.13
2022-10-19T01:40:12.000Z,57.27
2022-10-19T01:43:26.246Z,57.68
2022-10-19T01:46:37.727Z,57.43
2022-10-19T01:49:48.548Z,57.29
2022-10-19T01:52:56.948Z,57.64
2022-10-19T01:56:03.677Z,58.41
2022-10-19T01:59:11.248Z,58.18
2022-10-19T02:02:18.919Z,58.70
2022-10-19T02:05:28.970Z,58.07
2022-10-19T02:08:40.368Z,57.27
2022-10-19T02:11:49.049Z,57.63
2022-10-19T02:15:00.608Z,57.80
2022-10-19T02:18:07.505Z,57.99
2022-10-19T02:21:12.091Z,58.47
2022-10-19T02:24:16.623Z,57.61
2022-10-19T02:27:21.026Z,57.75
2022-10-19T02:30:24.628Z,57.35
2022-10-19T02:33:30.730Z,57.98
2022-10-19T02:36:34.294Z,58.15
2022-10-19T02:39:39.426Z,58.99
2022-10-19T02:42:47.422Z,56.96
2022-10-19T02:45:57.636Z,56.79
2022-10-19T02:49:04.987Z,57.95
2022-10-19T02:52:10.749Z,57.95
2022-10-19T02:55:14.251Z,58.04
2022-10-19T02:58:18.038Z,58.02
2022-10-19T03:01:22.539Z,58.66
2022-10-19T03:04:32.846Z,59.20
2022-10-19T03:07:37.667Z,57.74
2022-10-19T03:10:41.642Z,57.50
2022-10-19T03:13:45.415Z,57.24
2022-10-19T03:16:49.833Z,57.79
2022-10-19T03:19:54.771Z,58.55
2022-10-19T03:22:58.513Z,58.64
2022-10-19T03:26:02.224Z,57.95
2022-10-19T03:29:06.108Z,57.99
2022-10-19T03:32:10.658Z,57.21
2022-10-19T03:35:18.360Z,56.90
2022-10-19T03:38:21.909Z,56.64
2022-10-19T03:41:28.363Z,56.86
2022-10-19T03:44:33.740Z,56.81
2022-10-19T03:47:38.288Z,57.35
2022-10-19T03:50:43.593Z,56.79
2022-10-19T03:53:48.453Z,56.93
2022-10-19T03:56:53.882Z,56.55
2022-10-19T04:00:00.535Z,58.11
2022-10-19T04:03:04.165Z,57.74
2022-10-19T04:06:14.006Z,57.23
2022-10-19T04:09:21.922Z,57.88
2022-10-19T04:12:26.161Z,57.46
2022-10-19T04:15:31.523Z,57.77
2022-10-19T04:18:36.696Z,58.56
2022-10-19T04:21:43.667Z,57.73
2022-10-19T04:24:47.869Z,56.86
2022-10-19T04:27:51.491Z,56.77
2022-10-19T04:30:55.497Z,56.62
2022-10-19T04:33:59.308Z,57.18
2022-10-19T04:37:04.778Z,57.70
2022-10-19T04:40:14.230Z,58.03
2022-10-19T04:43:19.620Z,58.14
2022-10-19T04:46:23.843Z,57.95
2022-10-19T04:49:28.899Z,57.92
2022-10-19T04:52:35.603Z,57.00
2022-10-19T04:55:42.349Z,57.06
2022-10-19T04:58:46.881Z,57.65
2022-10-19T05:01:51.023Z,57.55
2022-10-19T05:04:54.466Z,57.13
2022-10-19T05:08:00.329Z,57.09
2022-10-19T05:11:05.262Z,57.20
2022-10-19T05:14:09.215Z,57.58
2022-10-19T05:17:14.284Z,58.87
2022-10-19T05:20:18.418Z,58.65
2022-10-19T05:23:24.564Z,58.69
2022-10-19T05:26:30.361Z,59.59
2022-10-19T05:29:35.122Z,58.51
2022-10-19T05:32:39.599Z,58.52
2022-10-19T05:35:44.153Z,58.89
2022-10-19T05:38:52.906Z,58.90
2022-10-19T05:41:56.653Z,58.59
2022-10-19T05:45:02.269Z,58.44
2022-10-19T05:48:06.924Z,58.04
2022-10-19T05:51:15.755Z,58.69
2022-10-19T05:54:23.752Z,60.30
2022-10-19T05:57:35.864Z,59.95
2022-10-19T06:00:39.828Z,60.01
2022-10-19T06:03:46.338Z,59.21
2022-10-19T06:06:50.301Z,59.19
2022-10-19T06:09:57.092Z,60.82
2022-10-19T06:13:01.055Z,59.47
2022-10-19T06:16:05.898Z,59.50
2022-10-19T06:19:10.451Z,60.11
2022-10-19T06:22:14.543Z,59.72
2022-10-19T06:25:20.796Z,59.69
2022-10-19T06:28:24.626Z,59.80
2022-10-19T06:31:29.326Z,60.73
2022-10-19T06:34:33.179Z,60.40
2022-10-19T06:37:37.025Z,60.38
2022-10-19T06:40:45.756Z,61.10
2022-10-19T06:43:53.951Z,60.82
2022-10-19T06:46:57.981Z,60.18
2022-10-19T06:50:01.611Z,60.57
2022-10-19T06:53:07.828Z,62.10
2022-10-19T06:56:13.200Z,62.40
2022-10-19T06:59:17.983Z,63.15
2022-10-19T07:02:25.713Z,63.57
2022-10-19T07:05:29.560Z,63.76
2022-10-19T07:08:34.971Z,63.52
2022-10-19T07:11:45.756Z,63.35
2022-10-19T07:14:51.346Z,63.08
2022-10-19T07:18:20.547Z,63.12
2022-10-19T07:21:25.328Z,63.47
2022-10-19T07:24:29.619Z,63.81
2022-10-19T07:27:40.224Z,64.14
2022-10-19T07:30:44.713Z,63.07
2022-10-19T07:33:48.883Z,62.64
2022-10-19T07:36:52.956Z,63.29
2022-10-19T07:39:59.298Z,64.01
2022-10-19T07:43:04.963Z,64.07
2022-10-19T07:46:13.292Z,64.58
2022-10-19T07:49:19.175Z,63.50
2022-10-19T07:52:23.356Z,64.59
2022-10-19T07:55:28.187Z,64.90
2022-10-19T07:58:34.488Z,65.39
2022-10-19T08:01:42.318Z,65.13
2022-10-19T08:05:00.378Z,66.43
2022-10-19T08:08:06.737Z,65.77
2022-10-19T08:11:11.959Z,65.89
2022-10-19T08:14:17.650Z,65.85
2022-10-19T08:17:22.023Z,65.98
2022-10-19T08:20:25.846Z,65.65
2022-10-19T08:23:32.329Z,66.46
2022-10-19T08:26:39.004Z,66.75
2022-10-19T08:29:44.373Z,68.29
2022-10-19T08:32:48.533Z,66.76
2022-10-19T08:35:54.074Z,67.21
2022-10-19T08:38:59.071Z,66.90
2022-10-19T08:42:05.301Z,67.66
2022-10-19T08:45:33.371Z,68.99
2022-10-19T08:48:43.083Z,68.18
2022-10-19T08:51:52.609Z,68.59
2022-10-19T08:54:59.332Z,68.62
2022-10-19T08:58:18.488Z,68.99
2022-10-19T09:01:37.731Z,68.14
2022-10-19T09:04:44.398Z,66.43
2022-10-19T09:07:56.349Z,65.17
2022-10-19T09:11:03.313Z,64.02
2022-10-19T09:14:15.752Z,64.18
2022-10-19T09:17:25.631Z,64.53
2022-10-19T09:20:35.822Z,64.22
2022-10-19T09:23:41.903Z,64.28
2022-10-19T09:26:53.585Z,62.33
2022-10-19T09:29:59.728Z,62.84
2022-10-19T09:33:15.425Z,63.46
2022-10-19T09:36:23.035Z,61.33
2022-10-19T09:39:32.564Z,60.78
2022-10-19T09:42:37.567Z,59.82
2022-10-19T09:45:51.713Z,60.88
2022-10-19T09:49:01.330Z,60.05
2022-10-19T09:52:05.517Z,59.88
2022-10-19T09:55:24.478Z,59.50
2022-10-19T09:58:33.043Z,60.01
2022-10-19T10:01:43.017Z,59.43
2022-10-19T10:04:57.838Z,59.98
2022-10-19T10:08:31.446Z,60.18
2022-10-19T10:14:57.220Z,59.28
2022-10-19T10:18:00.836Z,58.96
2022-10-19T10:21:14.864Z,59.03
2022-10-19T10:24:21.458Z,59.15
2022-10-19T10:27:34.886Z,58.58
2022-10-19T10:30:39.289Z,59.06
2022-10-19T10:33:45.566Z,58.85
2022-10-19T10:36:55.370Z,58.09
2022-10-19T10:40:03.696Z,58.68
2022-10-19T10:43:14.718Z,58.69
2022-10-19T10:46:23.966Z,59.44
2022-10-19T10:49:30.272Z,58.80
2022-10-19T10:52:37.337Z,58.62
2022-10-19T10:55:56.127Z,58.30
2022-10-19T10:59:06.277Z,58.95
2022-10-19T11:02:19.967Z,58.30
2022-10-19T11:05:27.198Z,58.13
2022-10-19T11:08:36.671Z,58.45
2022-10-19T11:11:45.969Z,58.73
2022-10-19T11:14:53.291Z,58.54
2022-10-19T11:18:09.579Z,58.98
2022-10-19T11:21:21.343Z,58.60
2022-10-19T11:24:45.082Z,59.51
2022-10-19T11:28:00.712Z,59.07
2022-10-19T11:31:16.655Z,57.36
2022-10-19T11:34:39.527Z,56.90
2022-10-19T11:38:17.938Z,56.50
2022-10-19T11:41:30.881Z,56.76
2022-10-19T11:44:48.115Z,56.78
2022-10-19T11:48:07.501Z,56.83
2022-10-19T11:51:21.798Z,56.78
2022-10-19T11:54:54.137Z,54.94
2022-10-19T11:58:09.736Z,55.58
2022-10-19T12:01:30.740Z,55.95
2022-10-19T12:04:48.648Z,56.00
2022-10-19T12:08:07.655Z,55.74
2022-10-19T12:11:28.696Z,56.16
2022-10-19T12:14:37.568Z,56.62
2022-10-19T12:17:48.464Z,57.35
2022-10-19T12:20:57.162Z,57.15
2022-10-19T12:24:05.378Z,57.39
2022-10-19T12:27:14.738Z,57.37
2022-10-19T12:30:24.977Z,57.71
2022-10-19T12:33:37.135Z,57.67
2022-10-19T12:36:51.498Z,57.79
2022-10-19T12:40:01.176Z,57.84
2022-10-19T12:43:10.906Z,57.95
2022-10-19T12:46:29.980Z,58.61
2022-10-19T12:49:49.557Z,58.81
2022-10-19T12:52:54.975Z,58.59
2022-10-19T12:56:04.968Z,58.93
2022-10-19T12:59:25.630Z,58.86
2022-10-19T13:02:34.420Z,58.67
2022-10-19T13:05:38.304Z,59.14
2022-10-19T13:08:47.998Z,59.42
2022-10-19T13:12:25.844Z,59.94
2022-10-19T13:15:54.072Z,60.48
2022-10-19T13:19:19.172Z,60.53
2022-10-19T13:22:32.547Z,60.91
2022-10-19T13:25:36.935Z,61.07
2022-10-19T13:28:54.250Z,61.70
2022-10-19T13:32:32.602Z,62.10
2022-10-19T13:35:38.779Z,63.28
2022-10-19T13:38:44.669Z,63.84
2022-10-19T13:41:54.079Z,64.10
2022-10-19T13:44:59.712Z,63.88
2022-10-19T13:48:18.350Z,64.36
2022-10-19T13:51:33.817Z,66.35
2022-10-19T13:55:04.154Z,66.91
2022-10-19T13:58:38.649Z,67.33
2022-10-19T14:01:58.560Z,67.63
2022-10-19T14:05:26.504Z,68.17
2022-10-19T14:08:56.112Z,67.78
2022-10-19T14:12:07.880Z,67.53
2022-10-19T14:15:23.496Z,68.65
2022-10-19T14:18:29.578Z,68.45
2022-10-19T14:21:52.313Z,68.32
2022-10-19T14:25:05.480Z,68.47
2022-10-19T14:28:10.452Z,68.85
2022-10-19T14:31:21.841Z,68.92
2022-10-19T14:34:50.300Z,68.85
2022-10-19T14:37:56.904Z,68.89
2022-10-19T14:41:02.808Z,69.05
2022-10-19T14:44:34.327Z,69.26
2022-10-19T14:47:38.411Z,69.03
2022-10-19T14:50:47.868Z,69.19
2022-10-19T14:57:51.003Z,69.63
2022-10-19T15:00:56.728Z,69.64
2022-10-19T15:04:00.877Z,69.73
2022-10-19T15:07:15.789Z,69.29
2022-10-19T15:10:22.080Z,69.06
2022-10-19T15:13:33.740Z,68.72
2022-10-19T15:16:49.015Z,68.62
2022-10-19T15:19:53.870Z,68.96
2022-10-19T15:22:58.740Z,68.48
2022-10-19T15:26:09.554Z,68.60
2022-10-19T15:29:24.337Z,68.47
2022-10-19T15:32:35.454Z,68.68
2022-10-19T15:35:41.452Z,68.39
2022-10-19T15:38:47.300Z,68.98
2022-10-19T15:41:51.032Z,69.00
2022-10-19T15:44:56.386Z,69.08
2022-10-19T15:48:26.456Z,68.77
2022-10-19T15:51:47.394Z,68.79
2022-10-19T15:54:51.662Z,68.76
2022-10-19T15:58:00.422Z,69.53
2022-10-19T16:01:05.478Z,69.24
2022-10-19T16:04:09.508Z,69.33
2022-10-19T16:07:20.106Z,69.21
2022-10-19T16:10:29.504Z,69.02
2022-10-19T16:13:33.032Z,69.36
2022-10-19T16:16:38.642Z,69.19
2022-10-19T16:19:42.275Z,69.33
2022-10-19T16:22:47.847Z,69.07
2022-10-19T16:25:53.389Z,69.50
2022-10-19T16:28:57.843Z,69.37
2022-10-19T16:32:04.923Z,69.53
2022-10-19T16:35:10.315Z,69.39
2022-10-19T16:38:14.059Z,69.52
2022-10-19T16:41:22.231Z,69.92
2022-10-19T16:44:25.652Z,69.62
2022-10-19T16:47:30.814Z,69.78
2022-10-19T16:50:34.841Z,69.72
2022-10-19T16:53:39.829Z,69.90
2022-10-19T16:56:46.820Z,69.48
2022-10-19T16:59:54.471Z,69.28
2022-10-19T17:02:59.377Z,69.54
2022-10-19T17:06:03.771Z,69.05
2022-10-19T17:09:40.395Z,69.11
2022-10-19T17:12:34.359Z,69.44
2022-10-19T17:15:43.006Z,69.76
2022-10-19T17:19:15.469Z,69.20
2022-10-19T17:28:11.070Z,69.51
2022-10-19T17:31:15.435Z,69.44
2022-10-19T17:34:20.483Z,69.73
2022-10-19T17:37:24.238Z,69.16
2022-10-19T17:40:27.727Z,69.23
2022-10-19T17:43:31.479Z,69.29
2022-10-19T17:46:38.531Z,69.16
2022-10-19T17:49:43.553Z,69.17
2022-10-19T17:52:47.805Z,69.81
2022-10-19T17:55:52.348Z,70.41
2022-10-19T17:58:57.353Z,69.62
2022-10-19T18:02:02.085Z,70.06
2022-10-19T18:05:09.576Z,70.07
2022-10-19T18:08:13.658Z,70.58
2022-10-19T18:11:20.320Z,70.00
2022-10-19T18:14:24.114Z,69.47
2022-10-19T18:17:28.869Z,69.95
2022-10-19T18:20:36.222Z,69.99
2022-10-19T18:23:40.977Z,70.20
2022-10-19T18:26:49.180Z,70.22
2022-10-19T18:29:53.061Z,69.78
2022-10-19T18:32:59.390Z,70.24
2022-10-19T18:36:07.772Z,69.89
2022-10-19T18:39:13.629Z,70.31
2022-10-19T18:42:18.127Z,71.59
2022-10-19T18:45:23.509Z,71.11
2022-10-19T18:48:32.753Z,70.89
2022-10-19T18:51:39.347Z,71.03
2022-10-19T18:58:31.884Z,71.52
2022-10-19T19:01:40.517Z,71.62
2022-10-19T19:04:46.817Z,71.85
2022-10-19T19:07:52.900Z,71.90
2022-10-19T19:10:57.241Z,71.35
2022-10-19T19:14:02.794Z,71.09
2022-10-19T19:17:07.395Z,70.86
2022-10-19T19:20:12.567Z,71.97
2022-10-19T19:23:31.184Z,72.01
2022-10-19T19:26:40.483Z,72.07
2022-10-19T19:29:48.072Z,71.66
2022-10-19T19:32:52.428Z,71.64
2022-10-19T19:35:56.200Z,71.07
2022-10-19T19:39:01.354Z,71.11
2022-10-19T19:42:05.525Z,70.66
2022-10-19T19:45:12.199Z,70.75
2022-10-19T19:48:17.399Z,70.77
2022-10-19T19:51:22.571Z,69.81
2022-10-19T19:54:29.259Z,69.13
2022-10-19T19:57:33.004Z,68.95
2022-10-19T20:00:40.611Z,69.25
2022-10-19T20:03:46.203Z,68.56
2022-10-19T20:06:52.801Z,68.10
2022-10-19T20:10:04.709Z,66.76
2022-10-19T20:13:09.264Z,67.94
2022-10-19T20:16:14.685Z,66.55
2022-10-19T20:19:19.391Z,66.83
2022-10-19T20:22:28.271Z,66.58
2022-10-19T20:25:40.697Z,66.25
2022-10-19T20:28:46.490Z,66.27
2022-10-19T20:31:50.842Z,65.53
2022-10-19T20:34:56.124Z,65.99
2022-10-19T20:38:01.843Z,65.51
2022-10-19T20:41:10.615Z,65.39
2022-10-19T20:44:15.886Z,64.74
2022-10-19T20:47:22.179Z,64.83
2022-10-19T20:50:26.532Z,65.76
2022-10-19T20:53:30.635Z,64.32
2022-10-19T20:56:40.435Z,64.95
2022-10-19T20:59:44.285Z,63.97
2022-10-19T21:02:50.929Z,63.33
2022-10-19T21:05:54.731Z,63.49
2022-10-19T21:08:59.434Z,64.33
2022-10-19T21:12:04.925Z,64.07
2022-10-19T21:15:20.591Z,64.29
2022-10-19T21:18:29.008Z,63.71
2022-10-19T21:21:36.268Z,64.38
2022-10-19T21:24:41.515Z,63.92
2022-10-19T21:27:49.208Z,63.26
2022-10-19T21:30:56.189Z,63.81
2022-10-19T21:34:07.223Z,63.95
2022-10-19T21:37:11.682Z,63.43
2022-10-19T21:40:15.954Z,63.79
2022-10-19T21:43:21.664Z,63.22
2022-10-19T21:46:27.608Z,64.07
2022-10-19T21:49:31.401Z,64.42
2022-10-19T21:52:35.403Z,64.29
2022-10-19T21:55:39.695Z,63.49
2022-10-19T21:58:47.715Z,64.09
2022-10-19T22:01:52.037Z,64.15
2022-10-19T22:04:58.760Z,64.50
2022-10-19T22:08:02.636Z,64.72
2022-10-19T22:11:11.442Z,63.20
2022-10-19T22:14:18.103Z,62.40
2022-10-19T22:17:21.936Z,62.74
2022-10-19T22:20:27.338Z,62.06
2022-10-19T22:23:31.323Z,61.73
2022-10-19T22:30:55.591Z,63.02
2022-10-19T22:34:00.869Z,63.72
2022-10-19T22:37:04.975Z,63.00
2022-10-19T22:40:09.847Z,62.54
2022-10-19T22:43:14.939Z,62.25
2022-10-19T22:46:20.550Z,61.98
2022-10-19T22:49:24.846Z,62.03
2022-10-19T22:52:29.642Z,62.20
2022-10-19T22:55:33.568Z,62.91
2022-10-19T22:58:37.432Z,62.04
2022-10-19T23:01:43.257Z,61.78
2022-10-19T23:04:47.416Z,63.94
2022-10-19T23:07:51.748Z,64.79
2022-10-19T23:10:55.576Z,64.40
2022-10-19T23:13:59.693Z,65.61
2022-10-19T23:17:05.226Z,63.64
2022-10-19T23:20:10.858Z,62.48
2022-10-19T23:23:14.471Z,62.61
2022-10-19T23:26:20.695Z,62.59
2022-10-19T23:29:24.744Z,62.41
2022-10-19T23:32:30.670Z,62.79
2022-10-19T23:35:34.403Z,63.61
2022-10-19T23:38:38.421Z,62.78
2022-10-19T23:41:42.755Z,63.37
2022-10-19T23:44:47.786Z,63.64
2022-10-19T23:47:53.191Z,63.06
2022-10-19T23:50:59.300Z,62.06
2022-10-19T23:54:03.307Z,61.93
2022-10-19T23:57:09.783Z,61.03
